sensor_id;sensor_type;location;lat;lon;timestamp;temperature;humidity
52543;DHT22;38449;52.696;6.186;2023-01-16T00:01:01;4.40;99.90
52543;DHT22;38449;52.696;6.186;2023-01-16T00:03:27;4.40;99.90
52543;DHT22;38449;52.696;6.186;2023-01-16T00:05:52;4.50;99.90
52543;DHT22;38449;52.696;6.186;2023-01-16T00:08:18;4.40;99.90
52543;DHT22;38449;52.696;6.186;2023-01-16T00:10:44;4.50;99.90
52543;DHT22;38449;52.696;6.186;2023-01-16T00:13:11;4.50;99.90
52543;DHT22;38449;52.696;6.186;2023-01-16T00:15:37;4.60;99.90
52543;DHT22;38449;52.696;6.186;2023-01-16T00:18:03;4.50;99.90
52543;DHT22;38449;52.696;6.186;2023-01-16T00:20:29;4.60;99.90
52543;DHT22;38449;52.696;6.186;2023-01-16T00:22:55;4.60;99.90
52543;DHT22;38449;52.696;6.186;2023-01-16T00:25:20;4.60;99.90
52543;DHT22;38449;52.696;6.186;2023-01-16T00:27:46;4.60;99.90
52543;DHT22;38449;52.696;6.186;2023-01-16T00:30:11;4.60;99.90
52543;DHT22;38449;52.696;6.186;2023-01-16T00:32:37;4.60;99.90
52543;DHT22;38449;52.696;6.186;2023-01-16T00:35:03;4.60;99.90
52543;DHT22;38449;52.696;6.186;2023-01-16T00:37:29;4.70;99.90
52543;DHT22;38449;52.696;6.186;2023-01-16T00:39:54;4.60;99.90
52543;DHT22;38449;52.696;6.186;2023-01-16T00:42:20;4.60;99.90
52543;DHT22;38449;52.696;6.186;2023-01-16T00:44:48;4.60;99.90
52543;DHT22;38449;52.696;6.186;2023-01-16T00:47:14;4.60;99.90
52543;DHT22;38449;52.696;6.186;2023-01-16T00:49:39;4.70;99.90
52543;DHT22;38449;52.696;6.186;2023-01-16T00:52:05;4.70;99.90
52543;DHT22;38449;52.696;6.186;2023-01-16T00:54:31;4.70;99.90
52543;DHT22;38449;52.696;6.186;2023-01-16T00:56:56;4.80;99.90
52543;DHT22;38449;52.696;6.186;2023-01-16T00:59:22;4.70;99.90
52543;DHT22;38449;52.696;6.186;2023-01-16T01:01:47;4.80;99.90
52543;DHT22;38449;52.696;6.186;2023-01-16T01:04:13;4.70;99.90
52543;DHT22;38449;52.696;6.186;2023-01-16T01:06:39;4.70;99.90
52543;DHT22;38449;52.696;6.186;2023-01-16T01:09:05;4.70;99.90
52543;DHT22;38449;52.696;6.186;2023-01-16T01:11:30;4.70;99.90
52543;DHT22;38449;52.696;6.186;2023-01-16T01:13:56;4.80;99.90
52543;DHT22;38449;52.696;6.186;2023-01-16T01:16:22;4.80;99.90
52543;DHT22;38449;52.696;6.186;2023-01-16T01:18:48;4.70;99.90
52543;DHT22;38449;52.696;6.186;2023-01-16T01:21:14;4.70;99.90
52543;DHT22;38449;52.696;6.186;2023-01-16T01:23:39;4.80;99.90
52543;DHT22;38449;52.696;6.186;2023-01-16T01:26:07;4.80;99.90
52543;DHT22;38449;52.696;6.186;2023-01-16T01:28:38;4.80;99.90
52543;DHT22;38449;52.696;6.186;2023-01-16T01:31:05;4.80;99.90
52543;DHT22;38449;52.696;6.186;2023-01-16T01:33:31;4.70;99.90
52543;DHT22;38449;52.696;6.186;2023-01-16T01:35:57;4.80;99.90
52543;DHT22;38449;52.696;6.186;2023-01-16T01:38:22;4.80;99.90
52543;DHT22;38449;52.696;6.186;2023-01-16T01:40:48;4.70;99.90
52543;DHT22;38449;52.696;6.186;2023-01-16T01:43:15;4.80;99.90
52543;DHT22;38449;52.696;6.186;2023-01-16T01:45:53;4.70;99.90
52543;DHT22;38449;52.696;6.186;2023-01-16T01:48:32;4.80;99.90
52543;DHT22;38449;52.696;6.186;2023-01-16T01:51:02;4.80;99.90
52543;DHT22;38449;52.696;6.186;2023-01-16T01:53:35;4.80;99.90
52543;DHT22;38449;52.696;6.186;2023-01-16T01:56:11;4.80;99.90
52543;DHT22;38449;52.696;6.186;2023-01-16T01:58:39;4.80;99.90
52543;DHT22;38449;52.696;6.186;2023-01-16T02:01:05;4.80;99.90
52543;DHT22;38449;52.696;6.186;2023-01-16T02:03:35;4.80;99.90
52543;DHT22;38449;52.696;6.186;2023-01-16T02:06:06;4.80;99.90
52543;DHT22;38449;52.696;6.186;2023-01-16T02:08:34;4.60;99.90
52543;DHT22;38449;52.696;6.186;2023-01-16T02:13:29;4.60;99.90
52543;DHT22;38449;52.696;6.186;2023-01-16T02:15:56;4.50;99.90
52543;DHT22;38449;52.696;6.186;2023-01-16T02:18:41;4.60;99.90
52543;DHT22;38449;52.696;6.186;2023-01-16T02:30:08;4.40;99.90
52543;DHT22;38449;52.696;6.186;2023-01-16T02:40:57;4.30;99.90
52543;DHT22;38449;52.696;6.186;2023-01-16T02:43:33;4.40;99.90
52543;DHT22;38449;52.696;6.186;2023-01-16T02:46:08;4.40;99.90
52543;DHT22;38449;52.696;6.186;2023-01-16T02:51:23;4.50;99.90
52543;DHT22;38449;52.696;6.186;2023-01-16T02:53:59;4.40;99.90
52543;DHT22;38449;52.696;6.186;2023-01-16T02:56:35;4.50;99.90
52543;DHT22;38449;52.696;6.186;2023-01-16T02:59:07;4.50;99.90
52543;DHT22;38449;52.696;6.186;2023-01-16T03:01:35;4.50;99.90
52543;DHT22;38449;52.696;6.186;2023-01-16T03:06:44;4.70;99.90
52543;DHT22;38449;52.696;6.186;2023-01-16T03:09:36;4.60;99.90
52543;DHT22;38449;52.696;6.186;2023-01-16T03:22:51;4.60;99.90
52543;DHT22;38449;52.696;6.186;2023-01-16T03:25:32;4.70;99.90
52543;DHT22;38449;52.696;6.186;2023-01-16T03:28:13;4.80;99.90
52543;DHT22;38449;52.696;6.186;2023-01-16T03:31:54;4.70;99.90
52543;DHT22;38449;52.696;6.186;2023-01-16T03:34:16;4.70;99.90
52543;DHT22;38449;52.696;6.186;2023-01-16T03:37:11;4.70;99.90
52543;DHT22;38449;52.696;6.186;2023-01-16T03:39:42;4.70;99.90
52543;DHT22;38449;52.696;6.186;2023-01-16T03:42:15;4.70;99.90
52543;DHT22;38449;52.696;6.186;2023-01-16T03:44:46;4.80;99.90
52543;DHT22;38449;52.696;6.186;2023-01-16T03:47:22;4.80;99.90
52543;DHT22;38449;52.696;6.186;2023-01-16T03:49:53;4.70;99.90
52543;DHT22;38449;52.696;6.186;2023-01-16T03:52:22;4.70;99.90
52543;DHT22;38449;52.696;6.186;2023-01-16T03:57:53;4.80;99.90
52543;DHT22;38449;52.696;6.186;2023-01-16T04:00:20;4.80;99.90
52543;DHT22;38449;52.696;6.186;2023-01-16T04:02:53;4.80;99.90
52543;DHT22;38449;52.696;6.186;2023-01-16T04:05:46;4.80;99.90
52543;DHT22;38449;52.696;6.186;2023-01-16T04:08:25;4.80;99.90
52543;DHT22;38449;52.696;6.186;2023-01-16T04:10:54;4.80;99.90
52543;DHT22;38449;52.696;6.186;2023-01-16T04:13:25;4.90;99.90
52543;DHT22;38449;52.696;6.186;2023-01-16T04:15:54;4.90;99.90
52543;DHT22;38449;52.696;6.186;2023-01-16T04:18:22;4.90;99.90
52543;DHT22;38449;52.696;6.186;2023-01-16T04:20:50;4.90;99.90
52543;DHT22;38449;52.696;6.186;2023-01-16T04:23:16;4.80;99.90
52543;DHT22;38449;52.696;6.186;2023-01-16T04:25:42;4.80;99.90
52543;DHT22;38449;52.696;6.186;2023-01-16T04:28:07;4.80;99.90
52543;DHT22;38449;52.696;6.186;2023-01-16T04:30:33;4.80;99.90
52543;DHT22;38449;52.696;6.186;2023-01-16T04:33:03;4.80;99.90
52543;DHT22;38449;52.696;6.186;2023-01-16T04:35:29;4.70;99.90
52543;DHT22;38449;52.696;6.186;2023-01-16T04:37:55;4.70;99.90
52543;DHT22;38449;52.696;6.186;2023-01-16T04:40:20;4.70;99.90
52543;DHT22;38449;52.696;6.186;2023-01-16T04:42:46;4.60;99.90
52543;DHT22;38449;52.696;6.186;2023-01-16T04:45:11;4.60;99.90
52543;DHT22;38449;52.696;6.186;2023-01-16T04:47:37;4.50;99.90
52543;DHT22;38449;52.696;6.186;2023-01-16T04:50:03;4.50;99.90
52543;DHT22;38449;52.696;6.186;2023-01-16T04:52:28;4.40;99.90
52543;DHT22;38449;52.696;6.186;2023-01-16T04:54:54;4.40;99.90
52543;DHT22;38449;52.696;6.186;2023-01-16T04:57:19;4.20;99.90
52543;DHT22;38449;52.696;6.186;2023-01-16T04:59:45;4.30;99.90
52543;DHT22;38449;52.696;6.186;2023-01-16T05:02:11;4.20;99.90
52543;DHT22;38449;52.696;6.186;2023-01-16T05:04:36;4.20;99.90
52543;DHT22;38449;52.696;6.186;2023-01-16T05:07:02;4.00;99.90
52543;DHT22;38449;52.696;6.186;2023-01-16T05:09:27;4.10;99.90
52543;DHT22;38449;52.696;6.186;2023-01-16T05:11:53;4.00;99.90
52543;DHT22;38449;52.696;6.186;2023-01-16T05:14:18;4.00;99.90
52543;DHT22;38449;52.696;6.186;2023-01-16T05:16:44;3.90;99.90
52543;DHT22;38449;52.696;6.186;2023-01-16T05:19:10;4.10;99.90
52543;DHT22;38449;52.696;6.186;2023-01-16T05:21:36;4.10;99.90
52543;DHT22;38449;52.696;6.186;2023-01-16T05:24:01;4.10;99.90
52543;DHT22;38449;52.696;6.186;2023-01-16T05:26:27;4.10;99.90
52543;DHT22;38449;52.696;6.186;2023-01-16T05:28:52;4.10;99.90
52543;DHT22;38449;52.696;6.186;2023-01-16T05:31:18;4.00;99.90
52543;DHT22;38449;52.696;6.186;2023-01-16T05:33:44;4.00;99.90
52543;DHT22;38449;52.696;6.186;2023-01-16T05:36:09;4.10;99.90
52543;DHT22;38449;52.696;6.186;2023-01-16T05:38:35;4.10;99.90
52543;DHT22;38449;52.696;6.186;2023-01-16T05:41:01;4.00;99.90
52543;DHT22;38449;52.696;6.186;2023-01-16T05:43:26;4.00;99.90
52543;DHT22;38449;52.696;6.186;2023-01-16T05:45:52;3.90;99.90
52543;DHT22;38449;52.696;6.186;2023-01-16T05:48:17;3.90;99.90
52543;DHT22;38449;52.696;6.186;2023-01-16T05:50:43;3.90;99.90
52543;DHT22;38449;52.696;6.186;2023-01-16T05:53:09;3.90;99.90
52543;DHT22;38449;52.696;6.186;2023-01-16T05:55:43;3.90;99.90
52543;DHT22;38449;52.696;6.186;2023-01-16T05:58:11;3.90;99.90
52543;DHT22;38449;52.696;6.186;2023-01-16T06:00:38;3.80;99.90
52543;DHT22;38449;52.696;6.186;2023-01-16T06:03:06;3.80;99.90
52543;DHT22;38449;52.696;6.186;2023-01-16T06:05:32;3.90;99.90
52543;DHT22;38449;52.696;6.186;2023-01-16T06:07:58;3.80;99.90
52543;DHT22;38449;52.696;6.186;2023-01-16T06:10:25;3.80;99.90
52543;DHT22;38449;52.696;6.186;2023-01-16T06:12:51;3.70;99.90
52543;DHT22;38449;52.696;6.186;2023-01-16T06:15:16;3.80;99.90
52543;DHT22;38449;52.696;6.186;2023-01-16T06:17:42;3.80;99.90
52543;DHT22;38449;52.696;6.186;2023-01-16T06:20:09;3.70;99.90
52543;DHT22;38449;52.696;6.186;2023-01-16T06:22:35;3.80;99.90
52543;DHT22;38449;52.696;6.186;2023-01-16T06:25:00;3.80;99.90
52543;DHT22;38449;52.696;6.186;2023-01-16T06:27:26;3.70;99.90
52543;DHT22;38449;52.696;6.186;2023-01-16T06:29:52;3.80;99.90
52543;DHT22;38449;52.696;6.186;2023-01-16T06:32:19;3.80;99.90
52543;DHT22;38449;52.696;6.186;2023-01-16T06:34:44;3.80;99.90
52543;DHT22;38449;52.696;6.186;2023-01-16T06:37:11;3.70;99.90
52543;DHT22;38449;52.696;6.186;2023-01-16T06:39:36;3.80;99.90
52543;DHT22;38449;52.696;6.186;2023-01-16T06:42:02;3.70;99.90
52543;DHT22;38449;52.696;6.186;2023-01-16T06:44:30;3.70;99.90
52543;DHT22;38449;52.696;6.186;2023-01-16T06:46:56;3.70;99.90
52543;DHT22;38449;52.696;6.186;2023-01-16T06:49:22;3.70;99.90
52543;DHT22;38449;52.696;6.186;2023-01-16T06:51:47;3.70;99.90
52543;DHT22;38449;52.696;6.186;2023-01-16T06:54:13;3.70;99.90
52543;DHT22;38449;52.696;6.186;2023-01-16T06:56:38;3.80;99.90
52543;DHT22;38449;52.696;6.186;2023-01-16T06:59:04;3.70;99.90
52543;DHT22;38449;52.696;6.186;2023-01-16T07:01:30;3.70;99.90
52543;DHT22;38449;52.696;6.186;2023-01-16T07:03:57;3.80;99.90
52543;DHT22;38449;52.696;6.186;2023-01-16T07:06:24;3.70;99.90
52543;DHT22;38449;52.696;6.186;2023-01-16T07:08:49;3.60;99.90
52543;DHT22;38449;52.696;6.186;2023-01-16T07:11:16;3.60;99.90
52543;DHT22;38449;52.696;6.186;2023-01-16T07:13:42;3.70;99.90
52543;DHT22;38449;52.696;6.186;2023-01-16T07:16:10;3.70;99.90
52543;DHT22;38449;52.696;6.186;2023-01-16T07:18:55;3.80;99.90
52543;DHT22;38449;52.696;6.186;2023-01-16T07:21:41;3.80;99.90
52543;DHT22;38449;52.696;6.186;2023-01-16T07:24:29;3.70;99.90
52543;DHT22;38449;52.696;6.186;2023-01-16T07:26:58;3.70;99.90
52543;DHT22;38449;52.696;6.186;2023-01-16T07:29:26;3.80;99.90
52543;DHT22;38449;52.696;6.186;2023-01-16T07:31:52;3.90;99.90
52543;DHT22;38449;52.696;6.186;2023-01-16T07:34:18;3.90;99.90
52543;DHT22;38449;52.696;6.186;2023-01-16T07:36:44;4.00;99.90
52543;DHT22;38449;52.696;6.186;2023-01-16T07:39:10;3.90;99.90
52543;DHT22;38449;52.696;6.186;2023-01-16T07:41:35;3.90;99.90
52543;DHT22;38449;52.696;6.186;2023-01-16T07:44:01;3.90;99.90
52543;DHT22;38449;52.696;6.186;2023-01-16T07:46:26;4.00;99.90
52543;DHT22;38449;52.696;6.186;2023-01-16T07:48:52;4.00;99.90
52543;DHT22;38449;52.696;6.186;2023-01-16T07:51:19;4.10;99.90
52543;DHT22;38449;52.696;6.186;2023-01-16T07:53:44;4.10;99.90
52543;DHT22;38449;52.696;6.186;2023-01-16T07:56:10;4.10;99.90
52543;DHT22;38449;52.696;6.186;2023-01-16T07:58:35;4.20;99.90
52543;DHT22;38449;52.696;6.186;2023-01-16T08:01:03;4.20;99.90
52543;DHT22;38449;52.696;6.186;2023-01-16T08:03:31;4.20;99.90
52543;DHT22;38449;52.696;6.186;2023-01-16T08:05:57;4.20;99.90
52543;DHT22;38449;52.696;6.186;2023-01-16T08:08:23;4.20;99.90
52543;DHT22;38449;52.696;6.186;2023-01-16T08:10:53;4.30;99.90
52543;DHT22;38449;52.696;6.186;2023-01-16T08:13:19;4.20;99.90
52543;DHT22;38449;52.696;6.186;2023-01-16T08:15:45;4.30;99.90
52543;DHT22;38449;52.696;6.186;2023-01-16T08:18:11;4.30;99.90
52543;DHT22;38449;52.696;6.186;2023-01-16T08:20:37;4.40;99.90
52543;DHT22;38449;52.696;6.186;2023-01-16T08:23:03;4.40;99.90
52543;DHT22;38449;52.696;6.186;2023-01-16T08:25:28;4.40;99.90
52543;DHT22;38449;52.696;6.186;2023-01-16T08:27:54;4.30;99.90
52543;DHT22;38449;52.696;6.186;2023-01-16T08:30:20;4.40;99.90
52543;DHT22;38449;52.696;6.186;2023-01-16T08:32:46;4.40;99.90
52543;DHT22;38449;52.696;6.186;2023-01-16T08:35:11;4.40;99.90
52543;DHT22;38449;52.696;6.186;2023-01-16T08:37:37;4.40;99.90
52543;DHT22;38449;52.696;6.186;2023-01-16T08:40:03;4.30;99.90
52543;DHT22;38449;52.696;6.186;2023-01-16T08:42:30;4.30;99.90
52543;DHT22;38449;52.696;6.186;2023-01-16T08:45:14;4.40;99.90
52543;DHT22;38449;52.696;6.186;2023-01-16T08:47:59;4.30;99.90
52543;DHT22;38449;52.696;6.186;2023-01-16T08:50:47;4.40;99.90
52543;DHT22;38449;52.696;6.186;2023-01-16T08:53:32;4.40;99.90
52543;DHT22;38449;52.696;6.186;2023-01-16T08:55:58;4.40;99.90
52543;DHT22;38449;52.696;6.186;2023-01-16T08:58:23;4.40;99.90
52543;DHT22;38449;52.696;6.186;2023-01-16T09:00:49;4.40;99.90
52543;DHT22;38449;52.696;6.186;2023-01-16T09:03:15;4.40;99.90
52543;DHT22;38449;52.696;6.186;2023-01-16T09:05:44;4.30;99.90
52543;DHT22;38449;52.696;6.186;2023-01-16T09:08:10;4.40;99.90
52543;DHT22;38449;52.696;6.186;2023-01-16T09:10:36;4.40;99.90
52543;DHT22;38449;52.696;6.186;2023-01-16T09:13:01;4.40;99.90
52543;DHT22;38449;52.696;6.186;2023-01-16T09:15:46;4.40;99.90
52543;DHT22;38449;52.696;6.186;2023-01-16T09:18:11;4.30;99.90
52543;DHT22;38449;52.696;6.186;2023-01-16T09:20:37;4.40;99.90
52543;DHT22;38449;52.696;6.186;2023-01-16T09:23:03;4.50;99.90
52543;DHT22;38449;52.696;6.186;2023-01-16T09:25:31;4.40;99.90
52543;DHT22;38449;52.696;6.186;2023-01-16T09:28:00;4.40;99.90
52543;DHT22;38449;52.696;6.186;2023-01-16T09:30:27;4.50;99.90
52543;DHT22;38449;52.696;6.186;2023-01-16T09:32:53;4.30;99.90
52543;DHT22;38449;52.696;6.186;2023-01-16T09:35:19;4.40;99.90
52543;DHT22;38449;52.696;6.186;2023-01-16T09:37:45;4.50;99.90
52543;DHT22;38449;52.696;6.186;2023-01-16T09:40:18;4.40;99.90
52543;DHT22;38449;52.696;6.186;2023-01-16T09:42:58;4.40;99.90
52543;DHT22;38449;52.696;6.186;2023-01-16T09:45:46;4.50;99.90
52543;DHT22;38449;52.696;6.186;2023-01-16T09:48:26;4.50;99.90
52543;DHT22;38449;52.696;6.186;2023-01-16T09:50:56;4.40;99.90
52543;DHT22;38449;52.696;6.186;2023-01-16T09:56:42;4.50;99.90
52543;DHT22;38449;52.696;6.186;2023-01-16T09:59:41;4.40;99.90
52543;DHT22;38449;52.696;6.186;2023-01-16T10:02:22;4.30;99.90
52543;DHT22;38449;52.696;6.186;2023-01-16T10:04:50;4.30;99.90
52543;DHT22;38449;52.696;6.186;2023-01-16T10:07:47;4.30;99.90
52543;DHT22;38449;52.696;6.186;2023-01-16T10:16:15;4.20;99.90
52543;DHT22;38449;52.696;6.186;2023-01-16T10:27:00;4.10;99.90
52543;DHT22;38449;52.696;6.186;2023-01-16T10:30:18;4.10;99.90
52543;DHT22;38449;52.696;6.186;2023-01-16T10:32:43;4.10;99.90
52543;DHT22;38449;52.696;6.186;2023-01-16T10:35:25;4.10;99.90
52543;DHT22;38449;52.696;6.186;2023-01-16T10:37:54;4.10;99.90
52543;DHT22;38449;52.696;6.186;2023-01-16T10:40:26;4.10;99.90
52543;DHT22;38449;52.696;6.186;2023-01-16T10:43:09;4.10;99.90
52543;DHT22;38449;52.696;6.186;2023-01-16T10:45:57;4.20;99.90
52543;DHT22;38449;52.696;6.186;2023-01-16T10:48:43;4.10;99.90
52543;DHT22;38449;52.696;6.186;2023-01-16T10:51:27;4.00;99.90
52543;DHT22;38449;52.696;6.186;2023-01-16T10:53:53;4.00;99.90
52543;DHT22;38449;52.696;6.186;2023-01-16T10:56:18;4.10;99.90
52543;DHT22;38449;52.696;6.186;2023-01-16T10:58:44;4.20;99.90
52543;DHT22;38449;52.696;6.186;2023-01-16T11:01:15;4.20;99.90
52543;DHT22;38449;52.696;6.186;2023-01-16T11:03:50;4.10;99.90
52543;DHT22;38449;52.696;6.186;2023-01-16T11:06:22;4.20;99.90
52543;DHT22;38449;52.696;6.186;2023-01-16T11:11:18;4.30;99.90
52543;DHT22;38449;52.696;6.186;2023-01-16T11:14:29;4.20;99.90
52543;DHT22;38449;52.696;6.186;2023-01-16T11:20:03;4.20;99.90
52543;DHT22;38449;52.696;6.186;2023-01-16T11:22:29;4.20;99.90
52543;DHT22;38449;52.696;6.186;2023-01-16T11:24:58;4.20;99.90
52543;DHT22;38449;52.696;6.186;2023-01-16T11:27:30;4.20;99.90
52543;DHT22;38449;52.696;6.186;2023-01-16T11:29:57;4.40;99.90
52543;DHT22;38449;52.696;6.186;2023-01-16T11:32:24;4.30;99.90
52543;DHT22;38449;52.696;6.186;2023-01-16T11:34:55;4.30;99.90
52543;DHT22;38449;52.696;6.186;2023-01-16T11:37:27;4.40;99.90
52543;DHT22;38449;52.696;6.186;2023-01-16T11:39:54;4.50;99.90
52543;DHT22;38449;52.696;6.186;2023-01-16T11:42:22;4.40;99.90
52543;DHT22;38449;52.696;6.186;2023-01-16T11:45:20;4.40;99.90
52543;DHT22;38449;52.696;6.186;2023-01-16T11:48:08;4.50;99.90
52543;DHT22;38449;52.696;6.186;2023-01-16T11:50:50;4.40;99.90
52543;DHT22;38449;52.696;6.186;2023-01-16T11:53:16;4.60;99.90
52543;DHT22;38449;52.696;6.186;2023-01-16T11:56:20;4.60;99.90
52543;DHT22;38449;52.696;6.186;2023-01-16T12:04:48;4.60;99.90
52543;DHT22;38449;52.696;6.186;2023-01-16T12:08:03;4.70;99.90
52543;DHT22;38449;52.696;6.186;2023-01-16T12:10:41;4.60;99.90
52543;DHT22;38449;52.696;6.186;2023-01-16T12:13:09;4.70;99.90
52543;DHT22;38449;52.696;6.186;2023-01-16T12:19:07;4.80;99.90
52543;DHT22;38449;52.696;6.186;2023-01-16T12:21:55;4.60;99.90
52543;DHT22;38449;52.696;6.186;2023-01-16T12:24:29;4.60;99.90
52543;DHT22;38449;52.696;6.186;2023-01-16T12:27:09;4.70;99.90
52543;DHT22;38449;52.696;6.186;2023-01-16T12:35:50;4.80;99.90
52543;DHT22;38449;52.696;6.186;2023-01-16T12:38:27;4.70;99.90
52543;DHT22;38449;52.696;6.186;2023-01-16T12:46:59;4.70;99.90
52543;DHT22;38449;52.696;6.186;2023-01-16T12:49:45;4.80;99.90
52543;DHT22;38449;52.696;6.186;2023-01-16T12:55:22;4.90;99.90
52543;DHT22;38449;52.696;6.186;2023-01-16T13:00:39;4.80;99.90
52543;DHT22;38449;52.696;6.186;2023-01-16T13:03:20;4.90;99.90
52543;DHT22;38449;52.696;6.186;2023-01-16T13:05:47;4.90;99.90
52543;DHT22;38449;52.696;6.186;2023-01-16T13:10:45;5.00;99.90
52543;DHT22;38449;52.696;6.186;2023-01-16T13:13:36;5.00;99.90
52543;DHT22;38449;52.696;6.186;2023-01-16T13:16:09;5.00;99.90
52543;DHT22;38449;52.696;6.186;2023-01-16T13:18:57;5.10;99.90
52543;DHT22;38449;52.696;6.186;2023-01-16T13:21:27;5.10;99.90
52543;DHT22;38449;52.696;6.186;2023-01-16T13:24:14;5.00;99.90
52543;DHT22;38449;52.696;6.186;2023-01-16T13:26:45;5.10;99.90
52543;DHT22;38449;52.696;6.186;2023-01-16T13:32:28;5.00;99.90
52543;DHT22;38449;52.696;6.186;2023-01-16T13:43:45;5.20;99.90
52543;DHT22;38449;52.696;6.186;2023-01-16T13:46:32;5.30;99.90
52543;DHT22;38449;52.696;6.186;2023-01-16T13:49:01;5.10;99.90
52543;DHT22;38449;52.696;6.186;2023-01-16T13:51:27;5.20;99.90
52543;DHT22;38449;52.696;6.186;2023-01-16T13:53:59;5.20;99.90
52543;DHT22;38449;52.696;6.186;2023-01-16T13:56:28;5.20;99.90
52543;DHT22;38449;52.696;6.186;2023-01-16T13:59:00;5.20;99.90
52543;DHT22;38449;52.696;6.186;2023-01-16T14:06:48;5.20;99.90
52543;DHT22;38449;52.696;6.186;2023-01-16T14:12:18;5.30;99.90
52543;DHT22;38449;52.696;6.186;2023-01-16T14:20:42;5.20;99.90
52543;DHT22;38449;52.696;6.186;2023-01-16T14:26:07;5.20;99.90
52543;DHT22;38449;52.696;6.186;2023-01-16T14:28:34;5.20;99.90
52543;DHT22;38449;52.696;6.186;2023-01-16T14:31:02;5.20;99.90
52543;DHT22;38449;52.696;6.186;2023-01-16T14:33:28;5.10;99.90
52543;DHT22;38449;52.696;6.186;2023-01-16T14:35:56;5.30;99.90
52543;DHT22;38449;52.696;6.186;2023-01-16T14:38:27;5.20;99.90
52543;DHT22;38449;52.696;6.186;2023-01-16T14:40:59;5.20;99.90
52543;DHT22;38449;52.696;6.186;2023-01-16T14:47:09;5.20;99.90
52543;DHT22;38449;52.696;6.186;2023-01-16T14:50:17;5.10;99.90
52543;DHT22;38449;52.696;6.186;2023-01-16T14:56:21;5.30;99.90
52543;DHT22;38449;52.696;6.186;2023-01-16T14:59:06;5.30;99.90
52543;DHT22;38449;52.696;6.186;2023-01-16T15:01:46;5.30;99.90
52543;DHT22;38449;52.696;6.186;2023-01-16T15:10:15;5.20;99.90
52543;DHT22;38449;52.696;6.186;2023-01-16T15:12:42;5.20;99.90
52543;DHT22;38449;52.696;6.186;2023-01-16T15:15:27;5.30;99.90
52543;DHT22;38449;52.696;6.186;2023-01-16T15:17:56;5.30;99.90
52543;DHT22;38449;52.696;6.186;2023-01-16T15:20:42;5.20;99.90
52543;DHT22;38449;52.696;6.186;2023-01-16T15:23:28;5.30;99.90
52543;DHT22;38449;52.696;6.186;2023-01-16T15:30:59;5.40;99.90
52543;DHT22;38449;52.696;6.186;2023-01-16T15:33:30;5.40;99.90
52543;DHT22;38449;52.696;6.186;2023-01-16T15:36:39;5.30;99.90
52543;DHT22;38449;52.696;6.186;2023-01-16T15:41:37;5.20;99.90
52543;DHT22;38449;52.696;6.186;2023-01-16T15:44:28;5.30;99.90
52543;DHT22;38449;52.696;6.186;2023-01-16T15:50:24;5.40;99.90
52543;DHT22;38449;52.696;6.186;2023-01-16T15:52:52;5.30;99.90
52543;DHT22;38449;52.696;6.186;2023-01-16T15:55:26;5.40;99.90
52543;DHT22;38449;52.696;6.186;2023-01-16T15:57:55;5.30;99.90
52543;DHT22;38449;52.696;6.186;2023-01-16T16:00:36;5.20;99.90
52543;DHT22;38449;52.696;6.186;2023-01-16T16:03:20;5.20;99.90
52543;DHT22;38449;52.696;6.186;2023-01-16T16:05:50;5.30;99.90
52543;DHT22;38449;52.696;6.186;2023-01-16T16:08:25;5.30;99.90
52543;DHT22;38449;52.696;6.186;2023-01-16T16:10:57;5.20;99.90
52543;DHT22;38449;52.696;6.186;2023-01-16T16:13:43;5.20;99.90
52543;DHT22;38449;52.696;6.186;2023-01-16T16:16:25;5.20;99.90
52543;DHT22;38449;52.696;6.186;2023-01-16T16:19:30;5.20;99.90
52543;DHT22;38449;52.696;6.186;2023-01-16T16:21:56;5.20;99.90
52543;DHT22;38449;52.696;6.186;2023-01-16T16:24:41;5.20;99.90
52543;DHT22;38449;52.696;6.186;2023-01-16T16:27:12;5.30;99.90
52543;DHT22;38449;52.696;6.186;2023-01-16T16:29:39;5.30;99.90
52543;DHT22;38449;52.696;6.186;2023-01-16T16:32:09;5.20;99.90
52543;DHT22;38449;52.696;6.186;2023-01-16T16:34:37;5.30;99.90
52543;DHT22;38449;52.696;6.186;2023-01-16T16:37:04;5.20;99.90
52543;DHT22;38449;52.696;6.186;2023-01-16T16:39:43;5.20;99.90
52543;DHT22;38449;52.696;6.186;2023-01-16T16:47:45;5.90;99.90
52543;DHT22;38449;52.696;6.186;2023-01-16T16:50:34;6.10;99.90
52543;DHT22;38449;52.696;6.186;2023-01-16T16:53:11;6.40;99.90
52543;DHT22;38449;52.696;6.186;2023-01-16T16:55:43;6.20;99.90
52543;DHT22;38449;52.696;6.186;2023-01-16T16:58:17;6.20;99.90
52543;DHT22;38449;52.696;6.186;2023-01-16T17:00:59;6.00;99.90
52543;DHT22;38449;52.696;6.186;2023-01-16T17:03:26;6.10;99.90
52543;DHT22;38449;52.696;6.186;2023-01-16T17:05:53;6.10;99.90
52543;DHT22;38449;52.696;6.186;2023-01-16T17:08:27;6.20;99.90
52543;DHT22;38449;52.696;6.186;2023-01-16T17:10:56;6.20;99.90
52543;DHT22;38449;52.696;6.186;2023-01-16T17:13:23;6.50;99.90
52543;DHT22;38449;52.696;6.186;2023-01-16T17:15:58;6.40;99.90
52543;DHT22;38449;52.696;6.186;2023-01-16T17:18:25;6.40;99.90
52543;DHT22;38449;52.696;6.186;2023-01-16T17:20:53;6.40;99.90
52543;DHT22;38449;52.696;6.186;2023-01-16T17:23:19;6.30;99.90
52543;DHT22;38449;52.696;6.186;2023-01-16T17:25:45;6.30;99.90
52543;DHT22;38449;52.696;6.186;2023-01-16T17:28:12;6.30;99.90
52543;DHT22;38449;52.696;6.186;2023-01-16T17:30:39;6.30;99.90
52543;DHT22;38449;52.696;6.186;2023-01-16T17:33:18;6.20;99.90
52543;DHT22;38449;52.696;6.186;2023-01-16T17:35:46;6.30;99.90
52543;DHT22;38449;52.696;6.186;2023-01-16T17:38:24;6.30;99.90
52543;DHT22;38449;52.696;6.186;2023-01-16T17:40:50;6.10;99.90
52543;DHT22;38449;52.696;6.186;2023-01-16T17:43:18;6.00;99.90
52543;DHT22;38449;52.696;6.186;2023-01-16T17:46:14;5.80;99.90
52543;DHT22;38449;52.696;6.186;2023-01-16T17:48:41;5.60;99.90
52543;DHT22;38449;52.696;6.186;2023-01-16T17:51:08;5.60;99.90
52543;DHT22;38449;52.696;6.186;2023-01-16T17:53:38;5.60;99.90
52543;DHT22;38449;52.696;6.186;2023-01-16T17:56:05;5.40;99.90
52543;DHT22;38449;52.696;6.186;2023-01-16T17:58:37;5.50;99.90
52543;DHT22;38449;52.696;6.186;2023-01-16T18:01:26;5.50;99.90
52543;DHT22;38449;52.696;6.186;2023-01-16T18:03:53;5.40;99.90
52543;DHT22;38449;52.696;6.186;2023-01-16T18:06:22;5.30;99.90
52543;DHT22;38449;52.696;6.186;2023-01-16T18:08:51;5.30;99.90
52543;DHT22;38449;52.696;6.186;2023-01-16T18:11:18;5.40;99.90
52543;DHT22;38449;52.696;6.186;2023-01-16T18:14:03;5.40;99.90
52543;DHT22;38449;52.696;6.186;2023-01-16T18:16:50;5.30;99.90
52543;DHT22;38449;52.696;6.186;2023-01-16T18:19:34;5.30;99.90
52543;DHT22;38449;52.696;6.186;2023-01-16T18:22:00;5.30;99.90
52543;DHT22;38449;52.696;6.186;2023-01-16T18:24:46;5.20;99.90
52543;DHT22;38449;52.696;6.186;2023-01-16T18:27:14;5.20;99.90
52543;DHT22;38449;52.696;6.186;2023-01-16T18:29:41;5.20;99.90
52543;DHT22;38449;52.696;6.186;2023-01-16T18:32:07;5.30;99.90
52543;DHT22;38449;52.696;6.186;2023-01-16T18:37:29;5.30;99.90
52543;DHT22;38449;52.696;6.186;2023-01-16T18:39:55;5.10;99.90
52543;DHT22;38449;52.696;6.186;2023-01-16T18:42:39;5.10;99.90
52543;DHT22;38449;52.696;6.186;2023-01-16T18:45:23;5.20;99.90